createdAt,value
2024-05-09T00:00:30.752Z,999.945388
2024-05-09T00:01:23.065Z,999.940391
2024-05-09T00:02:33.272Z,999.922277
2024-05-09T00:03:27.499Z,999.903004
2024-05-09T00:04:25.293Z,999.919289
2024-05-09T00:05:22.259Z,999.942116
2024-05-09T00:06:22.140Z,999.937213
2024-05-09T00:07:26.569Z,999.923676
2024-05-09T00:08:30.522Z,999.932519
2024-05-09T00:09:34.112Z,999.949204
2024-05-09T00:10:35.201Z,999.962881
2024-05-09T00:11:31.297Z,999.964144
2024-05-09T00:12:24.103Z,999.956987
2024-05-09T00:13:25.771Z,999.963765
2024-05-09T00:14:26.285Z,999.976278
2024-05-09T00:15:21.100Z,999.989412
2024-05-09T00:16:27.377Z,999.988185
2024-05-09T00:17:27.576Z,999.973571
2024-05-09T00:18:25.359Z,999.955485
2024-05-09T00:19:28.459Z,999.940423
2024-05-09T00:20:28.552Z,999.945791
2024-05-09T00:21:25.753Z,999.946505
2024-05-09T00:22:21.676Z,999.933421
2024-05-09T00:23:30.451Z,999.934696
2024-05-09T00:24:27.346Z,999.942387
2024-05-09T00:25:25.041Z,999.938649
2024-05-09T00:26:33.323Z,999.948796
2024-05-09T00:27:25.153Z,999.959792
2024-05-09T00:28:26.931Z,999.968946
2024-05-09T00:29:22.003Z,999.986078
2024-05-09T00:30:46.739Z,999.976655
2024-05-09T00:31:29.450Z,999.952431
2024-05-09T00:32:25.317Z,999.953800
2024-05-09T00:33:37.851Z,999.965931
2024-05-09T00:34:29.342Z,999.974877
2024-05-09T00:35:21.732Z,999.970443
2024-05-09T00:36:23.944Z,999.948558
2024-05-09T00:37:32.557Z,999.936152
2024-05-09T00:38:21.596Z,999.942121
2024-05-09T00:39:23.416Z,999.945267
2024-05-09T00:44:21.382Z,999.955181
2024-05-09T00:45:24.112Z,999.972139
2024-05-09T00:46:24.049Z,999.977118
2024-05-09T00:47:33.496Z,999.969580
2024-05-09T00:48:31.478Z,999.958470
2024-05-09T00:49:25.625Z,999.947587
2024-05-09T00:50:29.935Z,999.950282
2024-05-09T00:51:25.675Z,999.956206
2024-05-09T00:52:43.085Z,999.963439
2024-05-09T00:53:23.562Z,999.967281
2024-05-09T00:54:33.128Z,999.958634
2024-05-09T00:55:31.243Z,999.983923
2024-05-09T00:56:22.712Z,999.996907
2024-05-09T00:57:22.803Z,999.991076
2024-05-09T00:58:20.266Z,999.996798
2024-05-09T00:59:30.424Z,1000.010744
2024-05-09T01:00:31.474Z,1000.026382
2024-05-09T01:01:46.153Z,1000.018492
2024-05-09T01:09:45.495Z,999.975371
2024-05-09T01:11:05.467Z,999.981375
2024-05-09T01:12:43.793Z,999.980365
2024-05-09T01:13:11.184Z,999.965063
2024-05-09T01:14:04.018Z,999.952687
2024-05-09T01:14:40.187Z,999.942318
2024-05-09T01:16:04.631Z,999.927699
2024-05-09T01:16:33.471Z,999.929718
2024-05-09T01:18:27.319Z,999.923635
2024-05-09T01:18:52.464Z,999.909444
2024-05-09T01:20:42.462Z,999.902326
2024-05-09T01:20:53.534Z,999.898771
2024-05-09T01:21:39.691Z,999.894789
2024-05-09T01:23:16.551Z,999.890669
2024-05-09T01:23:39.618Z,999.889744
2024-05-09T01:24:52.840Z,999.876464
2024-05-09T01:26:48.980Z,999.864679
2024-05-09T01:27:12.880Z,999.856930
2024-05-09T01:27:56.338Z,999.857229
2024-05-09T01:28:25.491Z,999.854399
2024-05-09T01:36:55.974Z,999.754334
2024-05-09T01:37:36.276Z,999.767597
2024-05-09T01:38:27.623Z,999.777733
2024-05-09T01:42:43.998Z,999.848938
2024-05-09T01:44:36.250Z,999.863502
2024-05-09T01:45:18.387Z,999.872110
2024-05-09T01:45:23.079Z,999.878986
2024-05-09T01:46:21.281Z,999.882744
2024-05-09T01:47:32.269Z,999.900358
2024-05-09T01:48:28.722Z,999.917194
2024-05-09T01:49:24.041Z,999.920368
2024-05-09T01:50:39.663Z,999.920996
2024-05-09T01:51:20.519Z,999.899770
2024-05-09T01:52:25.574Z,999.880683
2024-05-09T01:53:22.697Z,999.874884
2024-05-09T01:54:21.811Z,999.872251
2024-05-09T01:55:28.909Z,999.866175
2024-05-09T01:56:23.563Z,999.850451
2024-05-09T01:57:34.117Z,999.847543
2024-05-09T01:58:23.529Z,999.861126
2024-05-09T01:59:28.729Z,999.864236
2024-05-09T02:00:33.915Z,999.850064
2024-05-09T02:01:23.470Z,999.840037
2024-05-09T02:02:29.607Z,999.835125
2024-05-09T02:03:24.387Z,999.842710
2024-05-09T02:04:34.838Z,999.846356
2024-05-09T02:05:29.480Z,999.851519
2024-05-09T02:06:21.015Z,999.870823
2024-05-09T02:07:21.657Z,999.878555
2024-05-09T02:08:26.418Z,999.878659
2024-05-09T02:09:28.610Z,999.893127
2024-05-09T02:10:31.675Z,999.893088
2024-05-09T02:11:34.541Z,999.891292
2024-05-09T02:12:23.279Z,999.907990
2024-05-09T02:13:25.255Z,999.922154
2024-05-09T02:14:21.933Z,999.935796
2024-05-09T02:15:24.257Z,999.959921
2024-05-09T02:16:28.048Z,999.978156
2024-05-09T02:17:23.444Z,999.973383
2024-05-09T02:18:35.017Z,999.964913
2024-05-09T02:19:24.771Z,999.974830
2024-05-09T02:20:34.070Z,999.977119
2024-05-09T02:21:21.812Z,999.962035
2024-05-09T02:22:27.118Z,999.945595
2024-05-09T02:23:20.303Z,999.933912
2024-05-09T02:24:23.137Z,999.928051
2024-05-09T02:25:35.626Z,999.925894
2024-05-09T02:26:29.777Z,999.930543
2024-05-09T02:27:26.770Z,999.929520
2024-05-09T02:28:21.324Z,999.930629
2024-05-09T02:29:31.762Z,999.950939
2024-05-09T02:30:31.071Z,999.969922
2024-05-09T02:31:23.412Z,999.988365
2024-05-09T02:32:35.331Z,1000.000823
2024-05-09T02:33:30.833Z,999.999904
2024-05-09T02:34:26.150Z,999.994689
2024-05-09T02:35:21.233Z,1000.018332
2024-05-09T02:36:23.051Z,1000.041079
2024-05-09T02:37:28.022Z,1000.045203
2024-05-09T02:38:23.729Z,1000.048048
2024-05-09T02:39:34.953Z,1000.053604
2024-05-09T02:40:36.559Z,1000.045048
2024-05-09T02:41:22.226Z,1000.029312
2024-05-09T02:42:21.960Z,1000.026436
2024-05-09T02:43:27.352Z,1000.032899
2024-05-09T02:44:22.513Z,1000.029556
2024-05-09T02:45:25.183Z,1000.029795
2024-05-09T02:46:34.734Z,1000.019891
2024-05-09T02:47:30.466Z,1000.008671
2024-05-09T02:48:27.111Z,1000.009349
2024-05-09T02:49:23.475Z,999.993475
2024-05-09T02:50:37.945Z,999.980864
2024-05-09T02:51:23.683Z,999.966570
2024-05-09T02:52:23.807Z,999.957162
2024-05-09T02:53:24.852Z,999.968339
2024-05-09T02:54:30.919Z,999.964978
2024-05-09T02:55:26.481Z,999.960767
2024-05-09T02:56:21.865Z,999.959990
2024-05-09T02:57:31.295Z,999.950256
2024-05-09T02:58:29.627Z,999.942173
2024-05-09T02:59:24.170Z,999.936589
2024-05-09T03:00:36.802Z,999.937149
2024-05-09T03:01:19.775Z,999.928885
2024-05-09T03:02:25.392Z,999.924311
2024-05-09T03:03:21.695Z,999.929096
2024-05-09T03:04:31.811Z,999.929929
2024-05-09T03:05:28.411Z,999.925314
2024-05-09T03:06:25.620Z,999.929045
2024-05-09T03:07:34.579Z,999.930160
2024-05-09T03:08:24.513Z,999.924881
2024-05-09T03:09:25.217Z,999.917782
2024-05-09T03:10:25.453Z,999.898619
2024-05-09T03:11:33.302Z,999.891538
2024-05-09T03:12:27.477Z,999.878053
2024-05-09T03:13:30.326Z,999.870813
2024-05-09T03:14:22.638Z,999.865588
2024-05-09T03:15:31.087Z,999.858046
2024-05-09T03:16:21.433Z,999.856218
2024-05-09T03:17:23.242Z,999.844408
2024-05-09T03:18:31.765Z,999.836769
2024-05-09T03:19:29.516Z,999.852344
2024-05-09T03:20:27.752Z,999.849085
2024-05-09T03:21:26.184Z,999.834969
2024-05-09T03:22:33.733Z,999.826819
2024-05-09T03:23:25.909Z,999.821589
2024-05-09T03:24:21.258Z,999.821671
2024-05-09T03:25:32.773Z,999.824850
2024-05-09T03:26:27.845Z,999.833978
2024-05-09T03:27:24.866Z,999.850020
2024-05-09T03:28:22.292Z,999.852787
2024-05-09T03:29:24.798Z,999.854515
2024-05-09T03:30:34.622Z,999.871839
2024-05-09T03:31:22.174Z,999.879661
2024-05-09T03:32:33.137Z,999.879663
2024-05-09T03:33:28.413Z,999.883804
2024-05-09T03:34:23.600Z,999.884626
2024-05-09T03:35:25.277Z,999.898383
2024-05-09T03:36:29.511Z,999.905271
2024-05-09T03:37:21.118Z,999.900020
2024-05-09T03:38:21.677Z,999.880736
2024-05-09T03:39:19.811Z,999.868706
2024-05-09T03:40:30.926Z,999.865811
2024-05-09T03:41:23.377Z,999.859809
2024-05-09T03:42:26.477Z,999.870117
2024-05-09T03:43:32.609Z,999.878498
2024-05-09T03:44:25.742Z,999.874955
2024-05-09T03:45:22.796Z,999.873484
2024-05-09T03:46:24.400Z,999.892948
2024-05-09T03:47:28.412Z,999.916862
2024-05-09T03:48:23.770Z,999.910670
2024-05-09T03:49:29.528Z,999.911704
2024-05-09T03:50:35.490Z,999.902797
2024-05-09T03:51:28.122Z,999.893932
2024-05-09T03:52:23.648Z,999.902263
2024-05-09T03:53:24.386Z,999.895965
2024-05-09T03:54:22.166Z,999.891006
2024-05-09T03:55:24.034Z,999.892557
2024-05-09T03:56:33.948Z,999.891510
2024-05-09T03:57:29.725Z,999.899242
2024-05-09T03:58:26.977Z,999.901614
2024-05-09T03:59:22.079Z,999.898534
2024-05-09T04:03:37.317Z,999.961489
2024-05-09T04:04:22.736Z,999.962952
2024-05-09T04:05:26.455Z,999.974609
2024-05-09T04:06:21.914Z,999.976321
2024-05-09T04:07:22.547Z,999.973643
2024-05-09T04:08:30.059Z,999.989031
2024-05-09T04:09:25.659Z,999.989774
2024-05-09T04:10:35.651Z,999.998224
2024-05-09T04:11:27.298Z,1000.005165
2024-05-09T04:12:27.441Z,999.991069
2024-05-09T04:13:21.703Z,999.981621
2024-05-09T04:14:25.590Z,999.982095
2024-05-09T04:15:20.576Z,999.962714
2024-05-09T04:16:23.617Z,999.947128
2024-05-09T04:17:34.835Z,999.935887
2024-05-09T04:18:29.352Z,999.921732
2024-05-09T04:19:25.580Z,999.902963
2024-05-09T04:20:32.575Z,999.910005
2024-05-09T04:21:31.957Z,999.917755
2024-05-09T04:22:25.065Z,999.900800
2024-05-09T04:23:25.577Z,999.901775
2024-05-09T04:24:25.274Z,999.919195
2024-05-09T04:25:31.708Z,999.928531
2024-05-09T04:26:25.374Z,999.920434
2024-05-09T04:27:23.295Z,999.922813
2024-05-09T04:28:36.162Z,999.928840
2024-05-09T04:29:27.770Z,999.940081
2024-05-09T04:30:30.205Z,999.949400
2024-05-09T04:31:29.288Z,999.961232
2024-05-09T04:32:21.093Z,999.991571
2024-05-09T04:33:23.141Z,1000.005351
2024-05-09T04:34:21.517Z,1000.002354
2024-05-09T04:35:31.716Z,1000.002597
2024-05-09T04:36:34.986Z,1000.005127
2024-05-09T04:37:39.651Z,1000.011052
2024-05-09T04:38:36.229Z,1000.022703
2024-05-09T04:39:25.354Z,1000.023983
2024-05-09T04:40:33.027Z,1000.031847
2024-05-09T04:41:22.333Z,1000.041144
2024-05-09T04:42:31.437Z,1000.027910
2024-05-09T04:43:28.320Z,1000.028511
2024-05-09T04:44:24.569Z,1000.028182
2024-05-09T04:45:22.219Z,1000.029878
2024-05-09T04:46:30.992Z,1000.045417
2024-05-09T04:47:22.988Z,1000.036903
2024-05-09T04:48:22.117Z,1000.027829
2024-05-09T04:49:33.409Z,1000.027699
2024-05-09T04:50:36.460Z,1000.033446
2024-05-09T04:51:24.376Z,1000.041561
2024-05-09T04:52:24.978Z,1000.066456
2024-05-09T04:53:31.423Z,1000.075320
2024-05-09T04:54:36.130Z,1000.073327
2024-05-09T04:55:25.431Z,1000.078187
2024-05-09T04:56:39.192Z,1000.083699
2024-05-09T04:57:27.596Z,1000.078334
2024-05-09T04:58:25.659Z,1000.080294
2024-05-09T04:59:29.121Z,1000.092925
2024-05-09T05:00:28.902Z,1000.097296
2024-05-09T05:01:26.818Z,1000.090272
2024-05-09T05:02:24.083Z,1000.096855
2024-05-09T05:03:33.310Z,1000.098058
2024-05-09T05:04:27.551Z,1000.097656
2024-05-09T05:05:26.162Z,1000.113257
2024-05-09T05:06:35.251Z,1000.101125
2024-05-09T05:07:25.566Z,1000.089128
2024-05-09T05:08:27.419Z,1000.110534
2024-05-09T05:09:24.257Z,1000.119566
2024-05-09T05:10:32.998Z,1000.121313
2024-05-09T05:11:27.692Z,1000.148793
2024-05-09T05:12:25.784Z,1000.165088
2024-05-09T05:13:41.340Z,1000.170475
2024-05-09T05:14:29.369Z,1000.162788
2024-05-09T05:15:26.785Z,1000.167523
2024-05-09T05:16:21.472Z,1000.166817
2024-05-09T05:17:26.664Z,1000.164907
2024-05-09T05:18:28.300Z,1000.172074
2024-05-09T05:19:24.804Z,1000.166576
2024-05-09T05:20:30.679Z,1000.179656
2024-05-09T05:21:29.754Z,1000.208216
2024-05-09T05:22:28.765Z,1000.219076
2024-05-09T05:23:22.219Z,1000.219461
2024-05-09T05:24:33.180Z,1000.224085
2024-05-09T05:25:24.263Z,1000.230733
2024-05-09T05:26:23.425Z,1000.228079
2024-05-09T05:27:19.957Z,1000.239144
2024-05-09T05:28:39.814Z,1000.249245
2024-05-09T05:29:25.889Z,1000.250484
2024-05-09T05:30:29.346Z,1000.271171
2024-05-09T05:31:34.101Z,1000.301193
2024-05-09T05:32:30.339Z,1000.316448
2024-05-09T05:33:24.824Z,1000.331524
2024-05-09T05:34:19.615Z,1000.358056
2024-05-09T05:35:33.200Z,1000.372335
2024-05-09T05:36:27.804Z,1000.374253
2024-05-09T05:37:21.683Z,1000.380090
2024-05-09T05:38:26.094Z,1000.377042
2024-05-09T05:39:31.697Z,1000.376629
2024-05-09T05:40:40.056Z,1000.379386
2024-05-09T05:41:20.951Z,1000.375695
2024-05-09T05:42:29.936Z,1000.383782
2024-05-09T05:43:25.631Z,1000.389111
2024-05-09T05:44:22.982Z,1000.377016
2024-05-09T05:45:25.848Z,1000.372642
2024-05-09T05:46:28.262Z,1000.369362
2024-05-09T05:47:23.605Z,1000.370055
2024-05-09T05:48:20.839Z,1000.379360
2024-05-09T05:49:22.839Z,1000.382483
2024-05-09T05:50:32.524Z,1000.387935
2024-05-09T05:51:23.376Z,1000.399086
2024-05-09T05:52:32.699Z,1000.399500
2024-05-09T05:53:23.479Z,1000.408199
2024-05-09T05:54:23.517Z,1000.419312
2024-05-09T05:55:19.636Z,1000.430110
2024-05-09T05:56:23.699Z,1000.436187
2024-05-09T05:57:26.557Z,1000.432035
2024-05-09T05:58:21.542Z,1000.418661
2024-05-09T05:59:35.128Z,1000.422713
2024-05-09T06:00:37.670Z,1000.422409
2024-05-09T06:01:23.607Z,1000.429574
2024-05-09T06:02:19.705Z,1000.452719
2024-05-09T06:03:24.187Z,1000.473994
2024-05-09T06:04:25.631Z,1000.476919
2024-05-09T06:05:24.265Z,1000.470001
2024-05-09T06:06:39.041Z,1000.474344
2024-05-09T06:07:21.548Z,1000.482960
2024-05-09T06:08:28.026Z,1000.494386
2024-05-09T06:09:20.186Z,1000.501201
2024-05-09T06:10:34.763Z,1000.478127
2024-05-09T06:11:25.559Z,1000.462651
2024-05-09T06:12:21.936Z,1000.459802
2024-05-09T06:13:39.936Z,1000.463795
2024-05-09T06:14:24.995Z,1000.468144
2024-05-09T06:15:24.451Z,1000.471188
2024-05-09T06:16:35.499Z,1000.454367
2024-05-09T06:17:34.526Z,1000.433731
2024-05-09T06:18:21.805Z,1000.438794
2024-05-09T06:19:21.511Z,1000.438248
2024-05-09T06:20:38.377Z,1000.426053
2024-05-09T06:24:29.813Z,1000.376132
2024-05-09T06:25:22.564Z,1000.365896
2024-05-09T06:30:29.887Z,1000.373058
2024-05-09T06:31:22.237Z,1000.376869
2024-05-09T06:32:25.671Z,1000.372058
2024-05-09T06:33:21.833Z,1000.358247
2024-05-09T06:34:32.830Z,1000.356192
2024-05-09T06:42:30.408Z,1000.414821
2024-05-09T06:43:23.609Z,1000.421969
2024-05-09T06:44:21.030Z,1000.423228
2024-05-09T06:45:30.833Z,1000.405930
2024-05-09T06:46:23.035Z,1000.398092
2024-05-09T06:47:21.590Z,1000.403747
2024-05-09T06:48:26.542Z,1000.403846
2024-05-09T06:49:28.627Z,1000.391885
2024-05-09T06:50:31.473Z,1000.387092
2024-05-09T06:51:19.639Z,1000.385060
2024-05-09T06:52:32.798Z,1000.389012
2024-05-09T06:53:27.818Z,1000.393843
2024-05-09T06:54:22.325Z,1000.394603
2024-05-09T06:55:34.064Z,1000.397478
2024-05-09T06:56:24.308Z,1000.399422
2024-05-09T06:57:24.974Z,1000.391264
2024-05-09T06:58:20.258Z,1000.388390
2024-05-09T06:59:30.121Z,1000.417975
2024-05-09T07:00:35.659Z,1000.434189
2024-05-09T07:01:24.823Z,1000.429868
2024-05-09T07:02:31.617Z,1000.424068
2024-05-09T07:03:29.061Z,1000.414426
2024-05-09T07:04:20.609Z,1000.403810
2024-05-09T07:05:19.933Z,1000.406426
2024-05-09T07:06:30.777Z,1000.400942
2024-05-09T07:07:27.911Z,1000.389285
2024-05-09T07:08:23.795Z,1000.399725
2024-05-09T07:09:31.900Z,1000.412355
2024-05-09T07:10:33.116Z,1000.399772
2024-05-09T07:11:26.725Z,1000.393896
2024-05-09T07:12:22.772Z,1000.381786
2024-05-09T07:13:29.752Z,1000.378299
2024-05-09T07:14:27.179Z,1000.387123
2024-05-09T07:15:22.039Z,1000.383712
2024-05-09T07:16:23.532Z,1000.380766
2024-05-09T07:17:29.331Z,1000.371538
2024-05-09T07:18:25.826Z,1000.370149
2024-05-09T07:19:21.820Z,1000.375498
2024-05-09T07:20:34.555Z,1000.370815
2024-05-09T07:21:27.780Z,1000.381129
2024-05-09T07:22:22.656Z,1000.395471
2024-05-09T07:23:22.585Z,1000.406935
2024-05-09T07:24:20.695Z,1000.404894
2024-05-09T07:25:23.678Z,1000.408183
2024-05-09T07:26:19.744Z,1000.413935
2024-05-09T07:27:30.229Z,1000.407851
2024-05-09T07:28:27.660Z,1000.408623
2024-05-09T07:29:22.063Z,1000.414550
2024-05-09T07:30:34.475Z,1000.419892
2024-05-09T07:31:26.843Z,1000.421623
2024-05-09T07:32:24.368Z,1000.425216
2024-05-09T07:33:23.271Z,1000.425065
2024-05-09T07:34:24.319Z,1000.424656
2024-05-09T07:35:26.093Z,1000.433214
2024-05-09T07:36:27.450Z,1000.428615
2024-05-09T07:37:31.835Z,1000.431432
2024-05-09T07:38:33.642Z,1000.447397
2024-05-09T07:39:25.362Z,1000.440314
2024-05-09T07:40:31.806Z,1000.438224
2024-05-09T07:41:23.562Z,1000.429361
2024-05-09T07:42:22.415Z,1000.413762
2024-05-09T07:43:23.724Z,1000.404791
2024-05-09T07:44:34.453Z,1000.405371
2024-05-09T07:45:45.192Z,1000.406777
2024-05-09T07:47:34.795Z,1000.413659
2024-05-09T07:48:57.484Z,1000.413659
2024-05-09T07:50:34.468Z,1000.413659
2024-05-09T07:52:01.184Z,1000.438885
2024-05-09T07:53:20.413Z,1000.465855
2024-05-09T07:53:36.167Z,1000.476024
2024-05-09T07:53:46.341Z,1000.482933
2024-05-09T07:53:52.563Z,1000.487616
2024-05-09T07:53:58.285Z,1000.489223
2024-05-09T07:54:23.014Z,1000.479158
2024-05-09T07:55:29.846Z,1000.462717
2024-05-09T07:56:31.612Z,1000.466718
2024-05-09T07:57:22.628Z,1000.477797
2024-05-09T07:58:32.586Z,1000.480601
2024-05-09T07:59:25.206Z,1000.480289
2024-05-09T08:00:30.901Z,1000.476461
2024-05-09T08:01:21.173Z,1000.473382
2024-05-09T08:02:30.851Z,1000.475569
2024-05-09T08:03:25.648Z,1000.472507
2024-05-09T08:04:23.046Z,1000.455966
2024-05-09T08:05:33.060Z,1000.445442
2024-05-09T08:06:27.578Z,1000.438462
2024-05-09T08:07:25.464Z,1000.442748
2024-05-09T08:08:19.862Z,1000.450702
2024-05-09T08:09:24.167Z,1000.427405
2024-05-09T08:10:27.463Z,1000.414580
2024-05-09T08:11:22.478Z,1000.422815
2024-05-09T08:12:23.066Z,1000.394737
2024-05-09T08:13:30.539Z,1000.395015
2024-05-09T08:14:26.069Z,1000.410110
2024-05-09T08:15:20.548Z,1000.398505
2024-05-09T08:16:30.286Z,1000.398249
2024-05-09T08:17:29.680Z,1000.404714
2024-05-09T08:18:22.750Z,1000.410087
2024-05-09T08:19:29.950Z,1000.437016
2024-05-09T08:20:30.150Z,1000.441533
2024-05-09T08:21:24.031Z,1000.431108
2024-05-09T08:22:21.910Z,1000.424601
2024-05-09T08:23:32.897Z,1000.422664
2024-05-09T08:24:26.567Z,1000.420157
2024-05-09T08:25:22.376Z,1000.401482
2024-05-09T08:26:33.903Z,1000.384478
2024-05-09T08:27:25.097Z,1000.360349
2024-05-09T08:28:24.357Z,1000.335243
2024-05-09T08:29:19.653Z,1000.321447
2024-05-09T08:30:36.368Z,1000.300710
2024-05-09T08:31:28.729Z,1000.288519
2024-05-09T08:32:23.045Z,1000.292938
2024-05-09T08:33:32.270Z,1000.301566
2024-05-09T08:34:29.685Z,1000.295277
2024-05-09T08:35:25.642Z,1000.293520
2024-05-09T08:36:20.153Z,1000.291532
2024-05-09T08:37:35.013Z,1000.289396
2024-05-09T08:38:28.259Z,1000.280013
2024-05-09T08:39:22.095Z,1000.252977
2024-05-09T08:40:36.115Z,1000.236094
2024-05-09T08:41:27.799Z,1000.238067
2024-05-09T08:42:29.610Z,1000.235897
2024-05-09T08:43:20.604Z,1000.204768
2024-05-09T08:44:30.066Z,1000.181581
2024-05-09T08:45:32.551Z,1000.174479
2024-05-09T08:46:23.740Z,1000.180673
2024-05-09T08:47:22.992Z,1000.198530
2024-05-09T08:48:28.328Z,1000.198214
2024-05-09T08:49:25.451Z,1000.186631
2024-05-09T08:50:35.630Z,1000.188083
2024-05-09T08:51:30.455Z,1000.179116
2024-05-09T08:52:29.278Z,1000.172417
2024-05-09T08:53:25.759Z,1000.185671
2024-05-09T08:57:26.126Z,1000.181079
2024-05-09T08:58:23.145Z,1000.194195
2024-05-09T08:59:28.617Z,1000.214888
2024-05-09T09:03:28.740Z,1000.192783
2024-05-09T09:04:20.752Z,1000.196238
2024-05-09T09:05:25.856Z,1000.205646
2024-05-09T09:06:26.294Z,1000.220980
2024-05-09T09:07:22.198Z,1000.231061
2024-05-09T09:08:34.901Z,1000.229770
2024-05-09T09:09:31.264Z,1000.224997
2024-05-09T09:10:29.279Z,1000.214891
2024-05-09T09:11:20.339Z,1000.223978
2024-05-09T09:12:32.896Z,1000.252756
2024-05-09T09:13:21.793Z,1000.262703
2024-05-09T09:14:22.010Z,1000.267147
2024-05-09T09:15:23.580Z,1000.260128
2024-05-09T09:16:28.236Z,1000.254453
2024-05-09T09:17:25.605Z,1000.237451
2024-05-09T09:18:21.806Z,1000.220899
2024-05-09T09:19:29.748Z,1000.207433
2024-05-09T09:20:39.958Z,1000.180868
2024-05-09T09:21:23.479Z,1000.186210
2024-05-09T09:22:34.286Z,1000.193674
2024-05-09T09:23:27.394Z,1000.198990
2024-05-09T09:24:24.488Z,1000.194050
2024-05-09T09:25:24.088Z,1000.185311
2024-05-09T09:26:29.898Z,1000.180178
2024-05-09T09:27:25.461Z,1000.169046
2024-05-09T09:28:23.204Z,1000.165537
2024-05-09T09:29:28.070Z,1000.167434
2024-05-09T09:30:35.385Z,1000.158026
2024-05-09T09:31:26.594Z,1000.140326
2024-05-09T09:32:20.440Z,1000.119195
2024-05-09T09:33:22.948Z,1000.103857
2024-05-09T09:34:28.237Z,1000.097665
2024-05-09T09:35:23.702Z,1000.091036
2024-05-09T09:36:22.532Z,1000.079260
2024-05-09T09:37:28.328Z,1000.082706
2024-05-09T09:38:23.647Z,1000.096274
2024-05-09T09:39:21.219Z,1000.097610
2024-05-09T09:40:32.126Z,1000.106884
2024-05-09T09:41:26.393Z,1000.126248
2024-05-09T09:42:23.465Z,1000.106537
2024-05-09T09:43:25.140Z,1000.071272
2024-05-09T09:44:20.697Z,1000.046409
2024-05-09T09:45:25.564Z,1000.037700
2024-05-09T09:46:19.750Z,1000.042123
2024-05-09T09:47:30.620Z,1000.026882
2024-05-09T09:48:26.819Z,1000.016650
2024-05-09T09:49:21.994Z,1000.017727
2024-05-09T09:50:34.309Z,1000.009464
2024-05-09T09:51:23.702Z,1000.018386
2024-05-09T09:52:26.303Z,1000.027486
2024-05-09T09:53:21.642Z,1000.026576
2024-05-09T09:57:33.992Z,1000.020441
2024-05-09T09:58:27.808Z,1000.005128
2024-05-09T09:59:24.027Z,999.996787
2024-05-09T10:00:27.198Z,999.981231
2024-05-09T10:01:29.586Z,999.956480
2024-05-09T10:02:23.723Z,999.950220
2024-05-09T10:03:22.579Z,999.952993
2024-05-09T10:04:33.711Z,999.968136
2024-05-09T10:05:31.780Z,999.976736
2024-05-09T10:06:24.183Z,999.988175
2024-05-09T10:07:19.729Z,1000.008182
2024-05-09T10:08:30.165Z,1000.014395
2024-05-09T10:09:26.665Z,1000.016324
2024-05-09T10:10:31.562Z,1000.009630
2024-05-09T10:11:41.659Z,999.994213
2024-05-09T10:12:28.302Z,999.982773
2024-05-09T10:13:24.048Z,999.982218
2024-05-09T10:14:20.157Z,999.977392
2024-05-09T10:15:32.169Z,999.964428
2024-05-09T10:16:26.105Z,999.952028
2024-05-09T10:17:23.143Z,999.955870
2024-05-09T10:18:21.638Z,999.966895
2024-05-09T10:19:28.128Z,999.964737
2024-05-09T10:20:28.177Z,999.962549
2024-05-09T10:21:19.605Z,999.964775
2024-05-09T10:22:31.422Z,999.981634
2024-05-09T10:23:26.211Z,1000.001673
2024-05-09T10:24:22.115Z,1000.005215
2024-05-09T10:25:25.527Z,1000.003730
2024-05-09T10:26:27.833Z,999.996824
2024-05-09T10:27:26.659Z,999.977885
2024-05-09T10:28:20.515Z,999.962264
2024-05-09T10:30:57.519Z,999.963338
2024-05-09T10:32:45.195Z,999.970686
2024-05-09T10:33:07.156Z,999.966371
2024-05-09T10:33:28.123Z,999.960733
2024-05-09T10:34:25.045Z,999.940675
2024-05-09T10:35:20.744Z,999.915163
2024-05-09T10:36:28.685Z,999.925130
2024-05-09T10:37:25.895Z,999.925302
2024-05-09T10:38:24.161Z,999.894236
2024-05-09T10:39:34.244Z,999.859907
2024-05-09T10:40:31.443Z,999.855213
2024-05-09T10:41:24.699Z,999.874890
2024-05-09T10:42:20.110Z,999.874419
2024-05-09T10:43:45.756Z,999.864050
2024-05-09T10:44:23.629Z,999.867561
2024-05-09T10:45:21.813Z,999.870497
2024-05-09T10:46:32.122Z,999.866208
2024-05-09T10:47:33.973Z,999.838523
2024-05-09T10:48:23.793Z,999.821949
2024-05-09T10:49:21.603Z,999.811449
2024-05-09T10:50:34.155Z,999.804132
2024-05-09T10:51:29.387Z,999.805902
2024-05-09T10:52:21.831Z,999.808561
2024-05-09T10:53:33.233Z,999.809950
2024-05-09T10:54:27.964Z,999.806476
2024-05-09T10:55:24.305Z,999.794976
2024-05-09T10:56:20.415Z,999.784153
2024-05-09T10:57:31.552Z,999.775771
2024-05-09T10:58:26.485Z,999.767445
2024-05-09T10:59:24.410Z,999.755392
2024-05-09T11:00:36.351Z,999.741661
2024-05-09T11:01:28.527Z,999.722984
2024-05-09T11:02:25.420Z,999.697772
2024-05-09T11:03:20.500Z,999.695904
2024-05-09T11:04:30.963Z,999.697236
2024-05-09T11:05:26.311Z,999.687357
2024-05-09T11:06:21.506Z,999.682339
2024-05-09T11:07:24.043Z,999.678090
2024-05-09T11:11:24.263Z,999.609709
2024-05-09T11:12:27.645Z,999.649293
2024-05-09T11:13:22.280Z,999.659521
2024-05-09T11:14:33.390Z,999.636535
2024-05-09T11:15:27.860Z,999.598576
2024-05-09T11:16:26.287Z,999.553985
2024-05-09T11:17:22.288Z,999.537458
2024-05-09T11:18:25.284Z,999.525825
2024-05-09T11:19:25.774Z,999.521934
2024-05-09T11:20:29.103Z,999.537824
2024-05-09T11:21:33.942Z,999.536559
2024-05-09T11:22:23.057Z,999.528980
2024-05-09T11:23:25.107Z,999.529309
2024-05-09T11:24:21.259Z,999.512668
2024-05-09T11:25:30.108Z,999.499366
2024-05-09T11:26:22.515Z,999.511128
2024-05-09T11:27:21.951Z,999.509461
2024-05-09T11:28:34.199Z,999.476358
2024-05-09T11:29:28.574Z,999.452049
2024-05-09T11:30:27.039Z,999.436163
2024-05-09T11:31:21.867Z,999.426880
2024-05-09T11:32:33.337Z,999.438978
2024-05-09T11:33:27.266Z,999.452182
2024-05-09T11:34:22.145Z,999.446270
2024-05-09T11:35:32.375Z,999.432768
2024-05-09T11:36:24.130Z,999.422231
2024-05-09T11:37:24.784Z,999.415359
2024-05-09T11:38:21.624Z,999.423396
2024-05-09T11:39:30.556Z,999.436754
2024-05-09T11:40:32.328Z,999.431436
2024-05-09T11:41:23.623Z,999.430058
2024-05-09T11:42:31.883Z,999.409744
2024-05-09T11:43:29.496Z,999.392171
2024-05-09T11:44:24.582Z,999.386985
2024-05-09T11:45:21.818Z,999.389012
2024-05-09T11:46:32.761Z,999.379504